Los Posos, Valles Caldera, New Mexico Weather observations

Data are for 10 minute period ending at time listed.
 Day   Time   Solar   Ave.   Ave.  Ave.  Vector  Max.   Baro.   Total    
  of    of     Rad.   Air    Rel.  Wind   Wind   Wind  Press.  Precip.   
Year   Day            Temp.  Hum.  Speed  Dir.   Gust                    
2016   (MST)  Kw/m2    F      %     mph   deg.    mph    mb.     in.     
-------------------------------------------------------------------------
 124    4:30   0.00   22.4    96    0.0     0     0.0   99999.0    0.00 
 124    4:40   0.00   22.8    96    0.0     0     0.0   99999.0    0.00 
 124    4:50   0.00   22.7    96    0.0     0     0.0   99999.0    0.00 
 124    5:00   0.00   22.0    95    0.0     0     0.0   99999.0    0.00 
 124    5:10   0.00   22.4    96    0.0     0     0.0   99999.0    0.00 
 124    5:20   0.01   22.5    96    0.0     0     0.0   99999.0    0.00 
 124    5:30   0.01   22.9    96    0.0     0     0.0   99999.0    0.00 
 124    5:40   0.04   23.6    96    0.0     0     0.0   99999.0    0.00 
 124    5:50   0.08   26.4    95    0.0     0     0.0   99999.0    0.00 
 124    6:00   0.12   27.8    91    0.0     0     0.0   99999.0    0.00 
 124    6:10   0.16   31.0    90    0.0     0     0.0   99999.0    0.00 
 124    6:20   0.20   33.6    84    0.0     0     0.0   99999.0    0.00 
 124    6:30   0.24   33.9    82    0.0     0     0.0   99999.0    0.00 
 124    6:40   0.27   37.5    78    0.0     0     0.0   99999.0    0.00 
 124    6:50   0.30   40.2    72    0.0     0     0.0   99999.0    0.00 
 124    7:00   0.34   41.8    69    0.0     0     0.0   99999.0    0.00 
 124    7:10   0.38   42.6    64    0.0     0     0.0   99999.0    0.00 
 124    7:20   0.41   44.5    61    0.0     0     0.0   99999.0    0.00 
 124    7:30   0.45   45.0    56    3.2   309     6.6   99999.0    0.00 
 124    7:40   0.48   43.7    56    5.0   316    10.2   99999.0    0.00 
 124    7:50   0.52   44.4    54    6.7   325    10.8   99999.0    0.00 
 124    8:00   0.55   43.8    53    6.1   295     9.6   99999.0    0.00 
 124    8:10   0.58   44.2    52    4.8   293    10.2   99999.0    0.00 
 124    8:20   0.61   45.8    49    3.2   272     7.8   99999.0    0.00 
 124    8:30   0.65   48.5    45    3.3    30     9.0   99999.0    0.00 
 124    8:40   0.69   49.4    42    2.2   199     5.4   99999.0    0.00 
 124    8:50   0.73   49.1    43    3.5    42     6.6   99999.0    0.00 
 124    9:00   0.79   49.9    41    4.5    83    10.8   99999.0    0.00 
 124    9:10   0.69   50.4    40    5.1    68    10.2   99999.0    0.00 
 124    9:20   0.79   50.2    46    5.9    73    11.3   99999.0    0.00 
 124    9:30   0.99   53.2    41    8.2    52    11.9   99999.0    0.00 
 124    9:40   0.98   53.4    40    7.8    71    13.1   99999.0    0.00 
 124    9:50   1.02   51.9    41    7.6    78    14.3   99999.0    0.00 
 124   10:00   1.04   53.7    39    8.6    44    13.1   99999.0    0.00 
 124   10:10   1.05   55.5    37    9.7    40    16.1   99999.0    0.00 
 124   10:20   1.04   54.9    37    8.6    57    13.1   99999.0    0.01 
 124   10:30   1.03   54.1    38    7.6    39    15.5   99999.0    0.00 
 124   10:40   0.82   54.5    36    7.7    52    13.7   99999.0    0.00 
 124   10:50   0.83   52.7    35    4.6    15    11.9   99999.0    0.00 
 124   11:00   0.96   53.4    31    6.8   350    11.9   99999.0    0.00 
 124   11:10   1.04   54.0    30    4.7   298    10.2   99999.0    0.00 
 124   11:20   0.92   53.4    29    7.0   342    13.7   99999.0    0.00 
 124   11:30   0.44   51.7    27    5.1   319    12.5   99999.0    0.00 
 124   11:40   0.74   51.7    28    5.2   303    12.5   99999.0    0.00 
 124   11:50   1.09   55.1    26    5.2     1     9.6   99999.0    0.01 
 124   12:00   0.85   57.2    25    6.2    38    13.1   99999.0    0.00 
 124   12:10   0.96   55.9    25    7.7    56    11.9   99999.0    0.00 
 124   12:20   0.77   55.1    26    4.9    84    10.8   99999.0    0.00 
 124   12:30   0.64   54.3    31    5.6    30    10.2   99999.0    0.00 
 124   12:40   1.08   56.1    31    6.8    89    12.5   99999.0    0.00 
 124   12:50   0.37   52.7    32    3.9   191     8.4   99999.0    0.00 
 124   13:00   0.25   51.3    32    3.2   115     6.6   99999.0    0.00 
 124   13:10   1.03   53.8    31    4.6   106     7.2   99999.0    0.01 
 124   13:20   0.60   54.5    32    4.4   174     9.0   99999.0    0.00 
 124   13:30   0.25   52.2    33    3.1   118     7.8   99999.0    0.00 
 124   13:40   0.30   52.4    33    3.9    73     8.4   99999.0    0.00 
 124   13:50   0.62   53.5    33    5.3    82    10.8   99999.0    0.00 
 124   14:00   0.25   52.2    33    6.0   123    11.3   99999.0    0.00 
 124   14:10   0.70   52.6    33    3.2   169     9.6   99999.0    0.00 
 124   14:20   0.60   54.5    30    6.3   142    10.2   99999.0    0.00 
 124   14:30   0.29   52.4    32    6.7    98    13.7   99999.0    0.00 
 124   14:40   0.20   51.8    33    4.9   117    11.9   99999.0    0.00 
 124   14:50   0.21   51.0    35    4.8   142     9.6   99999.0    0.00 
 124   15:00   0.20   51.3    35    3.2   100     8.4   99999.0    0.00 
 124   15:10   0.45   52.5    34    3.7   214     9.0   99999.0    0.00 
 124   15:20   0.77   54.4    33    5.9   192    12.5   99999.0    0.00 
 124   15:30   0.44   54.3    32    5.8   212    10.2   99999.0    0.00 
 124   15:40   0.24   51.9    35    6.6   225    10.8   99999.0    0.00 
 124   15:50   0.22   51.6    35    4.2   208     7.2   99999.0    0.00 
 124   16:00   0.59   55.2    31    2.9   143     5.4   99999.0    0.00 
 124   16:10   0.18   53.4    32    3.7   165     7.8   99999.0    0.00 
 124   16:20   0.16   51.5    34    4.5   167     6.6   99999.0    0.00 
 124   16:30   0.22   51.9    33    3.3   179     7.8   99999.0    0.00 
 124   16:40   0.12   51.6    34    3.6   198     7.2   99999.0    0.00 
 124   16:50   0.07   50.6    35    3.7   144     7.2   99999.0    0.00 
 124   17:00   0.23   50.9    36    1.9   205     4.2   99999.0    0.00 
 124   17:10   0.23   53.6    32    3.3   150     5.4   99999.0    0.00 
 124   17:20   0.19   51.6    34    3.8   158     6.0   99999.0    0.00 
 124   17:30   0.29   53.5    31    3.0   188     5.4   99999.0    0.00 
 124   17:40   0.29   55.6    28    2.5   173     6.6   99999.0    0.00 
 124   17:50   0.24   55.2    29    4.3   194     7.2   99999.0    0.00 
 124   18:00   0.20   53.8    29    4.2   157     9.6   99999.0    0.00 
 124   18:10   0.15   52.8    30    4.0   176     8.4   99999.0    0.00 
 124   18:20   0.06   51.0    31    3.1   123     6.6   99999.0    0.00 
 124   18:30   0.03   49.8    34    2.8   179     5.4   99999.0    0.00 
 124   18:40   0.01   46.4    44    1.8   215     4.2   99999.0    0.00 
 124   18:50   0.01   41.9    56    1.7   240     3.6   99999.0    0.00 
 124   19:00   0.01   38.6    64    2.6   240     3.6   99999.0    0.00 
 124   19:10   0.00   36.9    68    2.9   238     3.6   99999.0    0.00 
 124   19:20   0.00   36.4    68    2.9   237     4.2   99999.0    0.00 
 124   19:30   0.00   35.8    67    1.3   224     3.0   99999.0    0.00 
 124   19:40   0.00   34.9    70    0.4   238     1.8   99999.0    0.00 
 124   19:50   0.00   33.8    72    0.9   248     2.4   99999.0    0.00 
 124   20:00   0.00   32.8    73    1.4   252     3.0   99999.0    0.00 
 124   20:10   0.00   32.0    74    2.3   243     3.6   99999.0    0.00 
 124   20:20   0.00   31.5    76    2.1   243     3.0   99999.0    0.00 
 124   20:30   0.00   31.2    77    1.3   230     2.4   99999.0    0.00 
 124   20:40   0.00   31.9    73    2.2   216     4.8   99999.0    0.00 
 124   20:50   0.00   34.8    62    2.7   176     4.2   99999.0    0.00 
 124   21:00   0.00   31.2    71    1.1   285     3.6   99999.0    0.00 
 124   21:10   0.00   29.7    75    0.0   214     1.2   99999.0    0.00 
 124   21:20   0.00   29.3    78    1.7   243     4.2   99999.0    0.00 
 124   21:30   0.00   29.3    77    0.9   263     2.4   99999.0    0.00 
 124   21:40   0.00   29.2    79    0.7   236     3.0   99999.0    0.00 
 124   21:50   0.00   28.7    80    0.5   244     2.4   99999.0    0.00 
 124   22:00   0.00   28.6    81    0.0     0     0.0   99999.0    0.00 
 124   22:10   0.00   28.5    81    0.0     0     0.0   99999.0    0.00 
 124   22:20   0.00   28.8    82    0.2   225     2.4   99999.0    0.00 
 124   22:30   0.00   28.8    79    0.0   231     1.2   99999.0    0.00 
 124   22:40   0.00   27.9    82    0.6   233     2.4   99999.0    0.00 
 124   22:50   0.00   27.9    85    0.3   246     1.8   99999.0    0.00 
 124   23:00   0.00   27.9    86    0.2   258     2.4   99999.0    0.00 
 124   23:10   0.00   27.9    85    0.1   273     1.8   99999.0    0.00 
 124   23:20   0.00   27.9    86    0.0     0     0.0   99999.0    0.00 
 124   23:30   0.00   27.5    87    0.0   305     1.2   99999.0    0.00 
 124   23:40   0.00   27.4    89    0.0     0     0.0   99999.0    0.00 
 124   23:50   0.00   27.3    89    0.0     0     0.0   99999.0    0.00 
 125    0:00   0.00   27.7    89    0.3   242     2.4   99999.0    0.00 
 125    0:10   0.00   27.5    88    0.2   253     1.8   99999.0    0.00 
 125    0:20   0.00   27.1    90    0.0     0     0.0   99999.0    0.00 
 125    0:30   0.00   27.2    91    0.0    89     1.2   99999.0    0.00 
 125    0:40   0.00   26.8    91    0.2   252     1.8   99999.0    0.00 
 125    0:50   0.00   26.7    91    0.1   238     1.8   99999.0    0.00 
 125    1:00   0.00   26.6    91    1.0   233     2.4   99999.0    0.00 
 125    1:10   0.00   27.1    92    1.0   247     3.6   99999.0    0.00 
 125    1:20   0.00   26.9    90    0.0     0     0.0   99999.0    0.00 
 125    1:30   0.00   26.4    92    0.5   242     2.4   99999.0    0.00 
 125    1:40   0.00   26.5    92    2.4   249     3.6   99999.0    0.00 
 125    1:50   0.00   26.6    92    1.3   234     3.6   99999.0    0.00 
 125    2:00   0.00   26.2    91    0.3   336     2.4   99999.0    0.00 
 125    2:10   0.00   25.9    92    0.3   213     3.0   99999.0    0.00 
 125    2:20   0.00   26.3    92    0.5   242     3.0   99999.0    0.00 
 125    2:30   0.00   26.0    92    0.4   318     2.4   99999.0    0.00 
 125    2:40   0.00   25.8    92    0.4   267     1.8   99999.0    0.00 
 125    2:50   0.00   25.9    92    0.8   256     2.4   99999.0    0.00 
 125    3:00   0.00   25.2    92    0.7   234     2.4   99999.0    0.00 
 125    3:10   0.00   25.3    93    0.0     0     0.0   99999.0    0.00 
 125    3:20   0.00   25.5    94    0.0     0     0.0   99999.0    0.00 
 125    3:30   0.00   25.1    94    0.0     0     0.0   99999.0    0.00 
 125    3:40   0.00   25.3    94    0.9   241     3.0   99999.0    0.00 
 125    3:50   0.00   25.2    93    1.0   240     2.4   99999.0    0.00 
 125    4:00   0.00   24.9    94    0.2   238     1.8   99999.0    0.00 
 125    4:10   0.00   25.1    94    0.2   245     1.8   99999.0    0.00 
 125    4:20   0.00   24.8    94    0.0     0     0.0   99999.0    0.00 

Return to Los Posos, Valles Caldera graphs page.


Western Regional Climate Center,wrcc@dri.edu